createdAt,value
2018-08-10T00:00:50.455Z,22.60
2018-08-10T00:03:17.711Z,21.90
2018-08-10T00:05:44.988Z,21.80
2018-08-10T00:08:12.373Z,21.70
2018-08-10T00:10:39.676Z,21.70
2018-08-10T00:13:06.974Z,21.80
2018-08-10T00:15:34.266Z,21.80
2018-08-10T00:18:01.547Z,21.80
2018-08-10T00:20:28.834Z,21.80
2018-08-10T00:22:56.116Z,21.80
2018-08-10T00:25:23.375Z,21.80
2018-08-10T00:28:34.787Z,21.80
2018-08-10T00:31:02.075Z,21.70
2018-08-10T00:33:29.507Z,21.80
2018-08-10T00:35:56.757Z,21.80
2018-08-10T00:38:24.082Z,21.30
2018-08-10T00:40:51.364Z,21.80
2018-08-10T00:43:18.675Z,21.80
2018-08-10T00:45:45.948Z,21.60
2018-08-10T00:48:13.304Z,21.80
2018-08-10T00:50:40.550Z,21.80
2018-08-10T00:53:08.161Z,21.70
2018-08-10T00:55:35.544Z,21.70
2018-08-10T00:58:02.800Z,21.70
2018-08-10T01:00:30.098Z,21.70
2018-08-10T01:02:57.411Z,21.60
2018-08-10T01:05:24.791Z,21.60
2018-08-10T01:07:52.090Z,21.60
2018-08-10T01:10:20.092Z,21.60
2018-08-10T01:12:47.425Z,21.60
2018-08-10T01:15:15.668Z,21.60
2018-08-10T01:17:43.319Z,21.20
2018-08-10T01:20:16.158Z,21.60
2018-08-10T01:23:15.444Z,21.60
2018-08-10T01:25:42.754Z,21.60
2018-08-10T01:28:10.059Z,21.60
2018-08-10T01:30:37.384Z,21.50
2018-08-10T01:33:04.695Z,21.60
2018-08-10T01:35:32.241Z,21.60
2018-08-10T01:38:00.551Z,21.50
2018-08-10T01:40:27.881Z,21.50
2018-08-10T01:42:55.159Z,21.50
2018-08-10T01:45:22.467Z,21.50
2018-08-10T01:47:49.896Z,21.50
2018-08-10T01:50:17.275Z,21.50
2018-08-10T01:52:44.587Z,21.50
2018-08-10T01:55:12.024Z,21.50
2018-08-10T01:57:39.717Z,21.40
2018-08-10T02:00:07.820Z,21.40
2018-08-10T02:02:35.390Z,21.40
2018-08-10T02:05:02.733Z,21.40
2018-08-10T02:07:30.043Z,21.40
2018-08-10T02:09:57.295Z,21.30
2018-08-10T02:12:24.606Z,21.30
2018-08-10T02:14:51.902Z,21.50
2018-08-10T02:17:19.183Z,21.40
2018-08-10T02:19:46.510Z,21.10
2018-08-10T02:22:13.908Z,21.30
2018-08-10T02:24:41.230Z,21.30
2018-08-10T02:27:08.484Z,21.80
2018-08-10T02:29:35.731Z,21.10
2018-08-10T02:32:03.031Z,21.00
2018-08-10T02:34:30.328Z,21.00
2018-08-10T02:36:57.592Z,21.10
2018-08-10T02:39:24.899Z,20.90
2018-08-10T02:41:52.189Z,20.90
2018-08-10T02:44:19.490Z,21.00
2018-08-10T02:46:46.795Z,20.90
2018-08-10T02:49:14.100Z,20.60
2018-08-10T02:51:41.373Z,21.20
2018-08-10T02:54:08.650Z,20.90
2018-08-10T02:56:35.949Z,20.60
2018-08-10T03:01:30.491Z,20.90
2018-08-10T03:03:57.812Z,20.40
2018-08-10T03:08:52.651Z,21.10
2018-08-10T03:11:19.943Z,20.70
2018-08-10T03:13:47.181Z,20.60
2018-08-10T03:16:16.487Z,20.70
2018-08-10T03:18:43.766Z,21.60
2018-08-10T03:21:11.076Z,20.60
2018-08-10T03:23:38.315Z,20.40
2018-08-10T03:26:05.646Z,20.00
2018-08-10T03:28:32.909Z,19.90
2018-08-10T03:31:00.185Z,20.30
2018-08-10T03:33:27.455Z,20.20
2018-08-10T03:35:54.732Z,20.20
2018-08-10T03:38:21.984Z,20.20
2018-08-10T03:40:49.263Z,20.20
2018-08-10T03:43:16.520Z,20.10
2018-08-10T03:45:43.773Z,17.90
2018-08-10T03:48:11.064Z,20.10
2018-08-10T03:50:38.351Z,20.10
2018-08-10T03:53:05.591Z,20.10
2018-08-10T03:55:32.888Z,20.00
2018-08-10T03:58:00.155Z,19.90
2018-08-10T04:00:27.488Z,19.80
2018-08-10T04:02:54.730Z,19.70
2018-08-10T04:05:22.011Z,19.60
2018-08-10T04:07:49.289Z,19.50
2018-08-10T04:10:16.543Z,19.50
2018-08-10T04:12:43.791Z,19.50
2018-08-10T04:15:12.383Z,19.40
2018-08-10T04:17:39.654Z,19.80
2018-08-10T04:20:07.005Z,19.30
2018-08-10T04:22:34.318Z,19.30
2018-08-10T04:27:28.799Z,19.10
2018-08-10T04:32:23.340Z,19.00
2018-08-10T04:34:50.609Z,18.90
2018-08-10T04:37:18.416Z,18.80
2018-08-10T04:39:45.657Z,18.70
2018-08-10T04:42:12.942Z,18.70
2018-08-10T04:44:40.276Z,18.20
2018-08-10T04:47:07.520Z,18.60
2018-08-10T04:52:02.015Z,18.50
2018-08-10T04:54:29.295Z,18.50
2018-08-10T04:56:56.567Z,18.40
2018-08-10T04:59:23.838Z,18.40
2018-08-10T05:01:51.119Z,18.60
2018-08-10T05:04:18.376Z,18.50
2018-08-10T05:06:46.667Z,18.40
2018-08-10T05:09:13.954Z,18.40
2018-08-10T05:11:42.055Z,18.40
2018-08-10T05:14:09.629Z,18.40
2018-08-10T05:16:36.887Z,18.40
2018-08-10T05:19:04.218Z,18.60
2018-08-10T05:21:31.516Z,18.80
2018-08-10T05:23:58.778Z,18.60
2018-08-10T05:26:26.015Z,18.80
2018-08-10T05:28:53.409Z,18.80
2018-08-10T05:31:20.658Z,19.10
2018-08-10T05:33:47.940Z,19.00
2018-08-10T05:36:15.718Z,19.30
2018-08-10T05:38:42.999Z,19.20
2018-08-10T05:41:10.575Z,19.10
2018-08-10T05:43:37.970Z,19.60
2018-08-10T05:46:05.223Z,19.10
2018-08-10T05:48:39.340Z,19.10
2018-08-10T05:51:08.239Z,19.10
2018-08-10T05:53:35.483Z,19.10
2018-08-10T05:56:02.769Z,19.30
2018-08-10T06:00:57.291Z,19.50
2018-08-10T06:03:25.447Z,19.70
2018-08-10T06:05:52.652Z,19.70
2018-08-10T06:08:19.882Z,20.00
2018-08-10T06:10:47.171Z,19.80
2018-08-10T06:13:14.457Z,19.80
2018-08-10T06:15:41.687Z,19.40
2018-08-10T06:18:08.936Z,19.70
2018-08-10T06:20:36.223Z,19.80
2018-08-10T06:23:03.467Z,19.10
2018-08-10T06:25:30.796Z,19.80
2018-08-10T06:27:58.059Z,19.80
2018-08-10T06:30:25.368Z,19.80
2018-08-10T06:32:52.622Z,19.90
2018-08-10T06:35:19.902Z,19.80
2018-08-10T06:37:47.202Z,19.80
2018-08-10T06:40:14.496Z,19.80
2018-08-10T06:42:41.739Z,19.80
2018-08-10T06:45:09.020Z,19.70
2018-08-10T06:47:36.363Z,19.70
2018-08-10T06:50:04.279Z,19.60
2018-08-10T06:52:31.526Z,19.50
2018-08-10T06:54:58.761Z,19.30
2018-08-10T06:57:26.018Z,19.20
2018-08-10T06:59:53.254Z,19.10
2018-08-10T07:02:20.534Z,19.00
2018-08-10T07:04:47.822Z,19.00
2018-08-10T07:07:15.126Z,19.00
2018-08-10T07:09:42.375Z,19.10
2018-08-10T07:12:09.647Z,18.80
2018-08-10T07:14:36.911Z,18.70
2018-08-10T07:17:04.295Z,18.70
2018-08-10T07:19:31.602Z,18.80
2018-08-10T07:21:58.852Z,18.80
2018-08-10T07:24:26.083Z,18.80
2018-08-10T07:26:53.367Z,18.90
2018-08-10T07:29:20.624Z,18.30
2018-08-10T07:31:47.900Z,18.80
2018-08-10T07:34:15.217Z,18.70
2018-08-10T07:36:42.530Z,18.80
2018-08-10T07:39:11.178Z,18.70
2018-08-10T07:41:38.422Z,18.80
2018-08-10T07:44:05.872Z,18.90
2018-08-10T07:46:33.221Z,19.10
2018-08-10T07:49:00.478Z,19.30
2018-08-10T07:51:27.708Z,19.50
2018-08-10T07:53:54.934Z,19.90
2018-08-10T07:56:22.274Z,20.30
2018-08-10T07:58:49.596Z,20.30
2018-08-10T08:01:16.830Z,20.20
2018-08-10T08:03:44.156Z,20.60
2018-08-10T08:06:11.487Z,20.00
2018-08-10T08:08:38.703Z,19.90
2018-08-10T08:11:06.003Z,19.90
2018-08-10T08:13:33.310Z,20.00
2018-08-10T08:16:00.659Z,20.10
2018-08-10T08:18:27.923Z,20.10
2018-08-10T08:21:03.598Z,20.10
2018-08-10T08:23:30.873Z,20.20
2018-08-10T08:25:58.177Z,20.20
2018-08-10T08:28:28.066Z,20.20
2018-08-10T08:30:56.670Z,20.10
2018-08-10T08:33:24.324Z,20.00
2018-08-10T08:35:51.642Z,20.10
2018-08-10T08:38:30.919Z,20.30
2018-08-10T08:40:58.281Z,20.40
2018-08-10T08:45:46.590Z,20.70
2018-08-10T08:48:13.955Z,21.00
2018-08-10T08:50:42.580Z,21.80
2018-08-10T08:53:10.218Z,22.40
2018-08-10T08:55:39.971Z,22.60
2018-08-10T08:58:07.872Z,23.00
2018-08-10T09:00:35.551Z,23.10
2018-08-10T09:03:02.930Z,23.00
2018-08-10T09:05:30.280Z,22.70
2018-08-10T09:07:57.574Z,22.60
2018-08-10T09:10:24.869Z,22.90
2018-08-10T09:15:20.541Z,23.30
2018-08-10T09:17:47.824Z,23.10
2018-08-10T09:20:15.118Z,22.00
2018-08-10T09:22:42.415Z,22.90
2018-08-10T09:25:10.863Z,22.80
2018-08-10T09:27:38.206Z,23.50
2018-08-10T09:30:07.202Z,23.80
2018-08-10T09:32:34.454Z,24.20
2018-08-10T09:35:01.847Z,24.00
2018-08-10T09:37:29.147Z,24.90
2018-08-10T09:42:23.795Z,29.10
2018-08-10T09:44:51.168Z,31.70
2018-08-10T09:47:18.564Z,33.30
2018-08-10T09:49:47.175Z,33.70
2018-08-10T09:52:14.479Z,33.40
2018-08-10T09:55:24.615Z,32.40
2018-08-10T09:57:56.276Z,30.60
2018-08-10T10:00:29.184Z,29.20
2018-08-10T10:03:02.347Z,29.50
2018-08-10T10:05:29.613Z,29.10
2018-08-10T10:07:56.866Z,28.50
2018-08-10T10:10:24.395Z,27.70
2018-08-10T10:12:51.686Z,27.20
2018-08-10T10:15:19.115Z,26.90
2018-08-10T10:17:46.384Z,26.30
2018-08-10T10:20:13.953Z,26.00
2018-08-10T10:22:41.296Z,25.80
2018-08-10T10:25:08.634Z,25.40
2018-08-10T10:27:35.927Z,25.30
2018-08-10T10:30:03.951Z,25.20
2018-08-10T10:32:31.453Z,24.90
2018-08-10T10:34:58.767Z,24.40
2018-08-10T10:37:26.043Z,23.10
2018-08-10T10:39:53.324Z,23.70
2018-08-10T10:42:21.184Z,23.40
2018-08-10T10:44:48.648Z,23.00
2018-08-10T10:47:15.994Z,23.00
2018-08-10T10:49:43.248Z,23.20
2018-08-10T10:52:10.526Z,23.20
2018-08-10T10:54:37.763Z,23.30
2018-08-10T10:57:05.040Z,23.30
2018-08-10T10:59:32.311Z,23.40
2018-08-10T11:01:59.646Z,23.20
2018-08-10T11:04:26.870Z,23.50
2018-08-10T11:06:54.273Z,23.90
2018-08-10T11:09:21.543Z,24.30
2018-08-10T11:11:48.779Z,24.60
2018-08-10T11:14:16.046Z,24.60
2018-08-10T11:16:43.434Z,24.40
2018-08-10T11:19:10.690Z,24.60
2018-08-10T11:21:37.940Z,24.80
2018-08-10T11:24:05.232Z,26.40
2018-08-10T11:26:32.494Z,27.30
2018-08-10T11:28:59.747Z,27.60
2018-08-10T11:31:26.987Z,28.20
2018-08-10T11:33:54.591Z,29.70
2018-08-10T11:36:21.839Z,31.10
2018-08-10T11:38:49.071Z,32.60
2018-08-10T11:41:23.179Z,33.10
2018-08-10T11:43:50.461Z,33.50
2018-08-10T11:46:18.178Z,34.40
2018-08-10T11:48:45.534Z,33.80
2018-08-10T11:51:12.860Z,35.80
2018-08-10T11:53:40.139Z,36.90
2018-08-10T11:56:07.409Z,37.40
2018-08-10T11:58:34.662Z,39.00
2018-08-10T12:01:01.980Z,40.30
2018-08-10T12:03:29.839Z,41.10
2018-08-10T12:05:57.225Z,41.80
2018-08-10T12:08:24.418Z,42.60
2018-08-10T12:10:51.674Z,42.80
2018-08-10T12:13:18.987Z,42.40
2018-08-10T12:15:46.276Z,39.80
2018-08-10T12:23:08.125Z,33.30
2018-08-10T12:25:35.424Z,32.30
2018-08-10T12:28:02.933Z,31.90
2018-08-10T12:30:30.195Z,31.70
2018-08-10T12:32:57.656Z,31.50
2018-08-10T12:35:24.905Z,31.40
2018-08-10T12:37:52.252Z,30.90
2018-08-10T12:40:19.579Z,30.40
2018-08-10T12:42:46.883Z,29.70
2018-08-10T12:45:14.135Z,29.40
2018-08-10T12:47:41.383Z,29.30
2018-08-10T12:50:09.345Z,29.30
2018-08-10T12:52:36.626Z,29.50
2018-08-10T12:55:04.162Z,29.90
2018-08-10T12:57:31.455Z,29.70
2018-08-10T12:59:58.739Z,30.00
2018-08-10T13:02:26.016Z,30.00
2018-08-10T13:04:53.266Z,29.70
2018-08-10T13:07:20.544Z,29.80
2018-08-10T13:09:47.873Z,29.40
2018-08-10T13:12:15.158Z,28.80
2018-08-10T13:14:42.441Z,28.80
2018-08-10T13:17:09.770Z,28.90
2018-08-10T13:19:37.179Z,29.20
2018-08-10T13:22:04.954Z,29.20
2018-08-10T13:24:32.374Z,29.90
2018-08-10T13:26:59.671Z,29.10
2018-08-10T13:29:26.942Z,29.00
2018-08-10T13:31:54.227Z,28.90
2018-08-10T13:34:21.468Z,28.60
2018-08-10T13:36:48.730Z,28.50
2018-08-10T13:39:16.045Z,28.30
2018-08-10T13:41:43.268Z,28.00
2018-08-10T13:44:10.978Z,28.00
2018-08-10T13:46:38.372Z,27.70
2018-08-10T13:49:05.663Z,27.60
2018-08-10T13:51:32.975Z,27.60
2018-08-10T13:54:00.388Z,27.70
2018-08-10T13:56:27.691Z,27.70
2018-08-10T13:58:54.962Z,27.70
2018-08-10T14:01:22.230Z,27.70
2018-08-10T14:03:49.516Z,27.70
2018-08-10T14:06:16.906Z,27.70
2018-08-10T14:08:44.070Z,27.70
2018-08-10T14:11:11.347Z,27.60
2018-08-10T14:13:38.722Z,27.50
2018-08-10T14:16:06.031Z,27.40
2018-08-10T14:18:33.322Z,27.20
2018-08-10T14:21:00.612Z,27.20
2018-08-10T14:23:27.932Z,27.00
2018-08-10T14:25:55.167Z,27.00
2018-08-10T14:28:22.475Z,27.10
2018-08-10T14:30:49.722Z,27.00
2018-08-10T14:33:17.040Z,27.00
2018-08-10T14:35:44.252Z,27.00
2018-08-10T14:38:11.615Z,27.10
2018-08-10T14:40:38.876Z,27.40
2018-08-10T14:43:06.166Z,27.60
2018-08-10T14:45:33.474Z,27.40
2018-08-10T14:48:00.782Z,26.40
2018-08-10T14:50:28.090Z,27.20
2018-08-10T14:52:55.367Z,26.90
2018-08-10T14:55:22.622Z,26.50
2018-08-10T14:57:49.959Z,26.80
2018-08-10T15:00:19.067Z,27.00
2018-08-10T15:02:46.518Z,27.20
2018-08-10T15:05:13.742Z,27.40
2018-08-10T15:07:41.275Z,27.60
2018-08-10T15:10:10.367Z,27.70
2018-08-10T15:12:38.136Z,27.50
2018-08-10T15:15:06.682Z,27.50
2018-08-10T15:17:33.962Z,27.20
2018-08-10T15:20:01.221Z,27.00
2018-08-10T15:22:28.479Z,26.90
2018-08-10T15:24:55.767Z,27.00
2018-08-10T15:27:22.977Z,26.90
2018-08-10T15:29:50.240Z,26.90
2018-08-10T15:32:17.458Z,26.30
2018-08-10T15:34:44.727Z,26.90
2018-08-10T15:37:12.068Z,26.80
2018-08-10T15:39:39.348Z,26.60
2018-08-10T15:42:06.791Z,26.40
2018-08-10T15:44:34.070Z,26.10
2018-08-10T15:47:01.328Z,25.70
2018-08-10T15:49:28.734Z,25.50
2018-08-10T15:51:56.011Z,25.40
2018-08-10T15:54:23.234Z,25.20
2018-08-10T15:56:50.487Z,25.20
2018-08-10T15:59:17.734Z,25.20
2018-08-10T16:01:45.079Z,25.00
2018-08-10T16:04:12.334Z,25.20
2018-08-10T16:06:39.578Z,25.20
2018-08-10T16:09:08.871Z,25.20
2018-08-10T16:11:36.254Z,25.20
2018-08-10T16:14:03.738Z,25.20
2018-08-10T16:16:30.950Z,24.10
2018-08-10T16:18:58.254Z,25.10
2018-08-10T16:21:25.552Z,25.10
2018-08-10T16:23:52.850Z,24.90
2018-08-10T16:26:20.145Z,25.30
2018-08-10T16:28:47.421Z,25.30
2018-08-10T16:31:14.686Z,24.90
2018-08-10T16:33:41.955Z,25.30
2018-08-10T16:36:09.227Z,25.30
2018-08-10T16:38:36.467Z,24.90
2018-08-10T16:41:03.766Z,25.70
2018-08-10T16:43:31.047Z,25.60
2018-08-10T16:45:58.304Z,25.40
2018-08-10T16:48:25.562Z,25.50
2018-08-10T16:50:52.819Z,25.40
2018-08-10T16:53:20.075Z,25.00
2018-08-10T16:55:47.346Z,25.10
2018-08-10T16:58:14.630Z,25.00
2018-08-10T17:00:41.962Z,24.90
2018-08-10T17:03:09.271Z,24.80
2018-08-10T17:05:36.576Z,24.70
2018-08-10T17:08:03.876Z,24.60
2018-08-10T17:10:31.135Z,24.60
2018-08-10T17:12:58.499Z,24.40
2018-08-10T17:15:25.738Z,23.90
2018-08-10T17:17:52.984Z,24.20
2018-08-10T17:20:20.274Z,24.20
2018-08-10T17:22:48.062Z,24.00
2018-08-10T17:25:17.730Z,24.20
2018-08-10T17:27:45.028Z,24.10
2018-08-10T17:30:14.022Z,24.00
2018-08-10T17:32:41.285Z,23.90
2018-08-10T17:35:09.845Z,23.90
2018-08-10T17:37:38.255Z,23.80
2018-08-10T17:40:07.111Z,22.10
2018-08-10T17:42:34.457Z,23.60
2018-08-10T17:45:03.551Z,23.50
2018-08-10T17:47:33.049Z,23.50
2018-08-10T17:50:00.311Z,23.40
2018-08-10T17:52:30.369Z,23.30
2018-08-10T17:54:57.671Z,23.30
2018-08-10T17:57:24.987Z,23.20
2018-08-10T17:59:52.267Z,23.10
2018-08-10T18:02:19.617Z,23.10
2018-08-10T18:04:46.987Z,22.90
2018-08-10T18:07:14.342Z,22.20
2018-08-10T18:09:41.588Z,23.30
2018-08-10T18:12:08.867Z,22.80
2018-08-10T18:14:36.203Z,22.30
2018-08-10T18:17:03.461Z,22.60
2018-08-10T18:19:30.761Z,22.50
2018-08-10T18:21:58.134Z,22.50
2018-08-10T18:24:25.445Z,22.50
2018-08-10T18:26:52.872Z,22.40
2018-08-10T18:29:20.195Z,23.20
2018-08-10T18:31:47.628Z,21.80
2018-08-10T18:34:25.842Z,23.30
2018-08-10T18:36:53.323Z,22.10
2018-08-10T18:39:20.606Z,22.00
2018-08-10T18:41:47.962Z,22.00
2018-08-10T18:44:15.231Z,20.00
2018-08-10T18:46:42.563Z,21.80
2018-08-10T18:49:09.924Z,21.60
2018-08-10T18:51:37.303Z,22.60
2018-08-10T18:54:05.044Z,21.40
2018-08-10T18:56:32.334Z,21.30
2018-08-10T18:58:59.722Z,21.30
2018-08-10T19:01:27.007Z,21.00
2018-08-10T19:03:54.382Z,21.10
2018-08-10T19:06:21.771Z,20.80
2018-08-10T19:08:49.171Z,21.10
2018-08-10T19:11:17.587Z,20.90
2018-08-10T19:13:44.915Z,20.80
2018-08-10T19:16:12.219Z,20.70
2018-08-10T19:18:39.532Z,21.60
2018-08-10T19:21:06.915Z,20.60
2018-08-10T19:23:34.243Z,21.10
2018-08-10T19:26:01.559Z,20.40
2018-08-10T19:28:28.932Z,20.30
2018-08-10T19:30:56.513Z,20.30
2018-08-10T19:33:23.782Z,20.50
2018-08-10T19:35:51.118Z,20.10
2018-08-10T19:38:18.391Z,20.00
2018-08-10T19:40:45.623Z,20.00
2018-08-10T19:43:12.888Z,19.90
2018-08-10T19:45:40.169Z,19.90
2018-08-10T19:48:07.449Z,19.80
2018-08-10T19:53:03.170Z,19.50
2018-08-10T20:00:28.197Z,20.80
2018-08-10T20:05:22.784Z,19.40
2018-08-10T20:07:50.220Z,19.30
2018-08-10T20:10:17.539Z,19.30
2018-08-10T20:12:44.820Z,19.40
2018-08-10T20:15:13.604Z,19.20
2018-08-10T20:17:41.449Z,19.10
2018-08-10T20:20:10.335Z,18.80
2018-08-10T20:22:37.709Z,19.00
2018-08-10T20:25:06.020Z,18.90
2018-08-10T20:27:33.875Z,18.90
2018-08-10T20:30:01.188Z,19.40
2018-08-10T20:32:28.483Z,18.70
2018-08-10T20:37:26.068Z,18.60
2018-08-10T20:42:20.668Z,18.50
2018-08-10T20:44:48.116Z,18.50
2018-08-10T20:47:15.382Z,18.50
2018-08-10T20:49:48.010Z,18.40
2018-08-10T20:52:15.280Z,18.20
2018-08-10T20:54:42.627Z,18.30
2018-08-10T20:57:09.923Z,18.30
2018-08-10T20:59:37.227Z,18.20
2018-08-10T21:02:04.509Z,18.20
2018-08-10T21:04:31.818Z,18.10
2018-08-10T21:06:59.073Z,18.00
2018-08-10T21:09:28.306Z,17.90
2018-08-10T21:11:55.598Z,17.90
2018-08-10T21:14:23.713Z,17.90
2018-08-10T21:16:51.002Z,19.50
2018-08-10T21:19:18.294Z,18.00
2018-08-10T21:21:51.540Z,18.00
2018-08-10T21:26:59.315Z,18.10
2018-08-10T21:29:26.596Z,16.40
2018-08-10T21:31:53.878Z,17.60
2018-08-10T21:34:21.144Z,18.50
2018-08-10T21:36:48.494Z,17.50
2018-08-10T21:39:15.754Z,17.50
2018-08-10T21:41:43.123Z,17.70
2018-08-10T21:44:10.415Z,19.40
2018-08-10T21:49:05.488Z,17.30
2018-08-10T21:51:32.896Z,17.20
2018-08-10T21:54:00.384Z,16.90
2018-08-10T21:56:27.663Z,17.20
2018-08-10T21:58:54.970Z,17.20
2018-08-10T22:01:22.243Z,17.00
2018-08-10T22:03:49.621Z,17.10
2018-08-10T22:06:16.874Z,17.00
2018-08-10T22:08:44.142Z,16.90
2018-08-10T22:11:11.392Z,17.40
2018-08-10T22:13:44.211Z,16.90
2018-08-10T22:16:17.156Z,16.90
2018-08-10T22:18:50.197Z,16.90
2018-08-10T22:21:17.484Z,16.80
2018-08-10T22:23:44.787Z,16.80
2018-08-10T22:26:12.056Z,16.80
2018-08-10T22:28:39.298Z,16.60
2018-08-10T22:31:06.581Z,16.70
2018-08-10T22:33:34.357Z,16.80
2018-08-10T22:36:01.750Z,16.60
2018-08-10T22:38:29.014Z,16.20
2018-08-10T22:40:56.256Z,16.50
2018-08-10T22:43:23.581Z,16.50
2018-08-10T22:45:50.827Z,16.50
2018-08-10T22:48:18.243Z,16.40
2018-08-10T22:50:45.495Z,16.40
2018-08-10T22:53:12.785Z,16.40
2018-08-10T22:55:40.051Z,16.30
2018-08-10T22:58:07.324Z,16.30
2018-08-10T23:00:34.614Z,16.30
2018-08-10T23:03:05.208Z,16.20
2018-08-10T23:05:32.415Z,16.20
2018-08-10T23:07:59.712Z,16.10
2018-08-10T23:10:26.999Z,16.30
2018-08-10T23:12:56.039Z,16.30
2018-08-10T23:15:23.351Z,16.10
2018-08-10T23:17:50.578Z,16.80
2018-08-10T23:20:17.909Z,16.00
2018-08-10T23:22:45.188Z,16.00
2018-08-10T23:25:13.227Z,17.00
2018-08-10T23:27:51.202Z,15.90
2018-08-10T23:30:18.666Z,15.80
2018-08-10T23:32:45.932Z,14.60
2018-08-10T23:35:13.234Z,16.10
2018-08-10T23:37:40.537Z,16.90
2018-08-10T23:40:10.751Z,15.70
2018-08-10T23:42:38.386Z,15.70
2018-08-10T23:45:32.858Z,15.60
2018-08-10T23:48:00.329Z,16.00
2018-08-10T23:50:30.196Z,15.50
2018-08-10T23:52:57.519Z,15.50
2018-08-10T23:55:25.559Z,15.50
2018-08-10T23:57:52.902Z,15.50
